Terminal Aerodrome Forecast
Issued by NWS

Home | Current Version | Previous Version | Text Only | Print | Product List | Glossary On
Versions: 1 2 3 4 5 6 7 8 9 10 11 12 13 14 15 16 17 18 19 20 21 22 23
023
FTUS42 KTAE 230817 AAA
TAFDHN
TAF AMD
KDHN 230817Z 2308/2406 05005KT 6SM BR SCT005 BKN011
     FM231400 06008KT P6SM SCT005 BKN015
     FM231600 06008KT P6SM SCT030
     FM231800 07008KT P6SM SCT100=

USA.gov is the U.S. government's official web portal to all federal, state and local government web resources and services.